sensor_id;sensor_type;location;lat;lon;timestamp;temperature;humidity
65146;DHT22;51730;56.950;24.126;2023-04-24T00:02:10;13.60;68.40
65146;DHT22;51730;56.950;24.126;2023-04-24T00:04:38;13.60;68.50
65146;DHT22;51730;56.950;24.126;2023-04-24T00:07:07;13.50;68.60
65146;DHT22;51730;56.950;24.126;2023-04-24T00:09:35;13.60;68.40
65146;DHT22;51730;56.950;24.126;2023-04-24T00:12:02;13.50;68.80
65146;DHT22;51730;56.950;24.126;2023-04-24T00:14:32;13.50;68.80
65146;DHT22;51730;56.950;24.126;2023-04-24T00:16:59;13.50;68.80
65146;DHT22;51730;56.950;24.126;2023-04-24T00:19:26;13.50;69.10
65146;DHT22;51730;56.950;24.126;2023-04-24T00:21:55;13.40;68.90
65146;DHT22;51730;56.950;24.126;2023-04-24T00:24:22;13.40;69.10
65146;DHT22;51730;56.950;24.126;2023-04-24T00:26:51;13.40;69.40
65146;DHT22;51730;56.950;24.126;2023-04-24T00:29:17;13.40;69.60
65146;DHT22;51730;56.950;24.126;2023-04-24T00:31:45;13.40;69.70
65146;DHT22;51730;56.950;24.126;2023-04-24T00:34:11;13.30;70.10
65146;DHT22;51730;56.950;24.126;2023-04-24T00:36:45;13.30;70.40
65146;DHT22;51730;56.950;24.126;2023-04-24T00:39:12;13.30;70.40
65146;DHT22;51730;56.950;24.126;2023-04-24T00:41:40;13.30;70.40
65146;DHT22;51730;56.950;24.126;2023-04-24T00:44:06;13.30;70.80
65146;DHT22;51730;56.950;24.126;2023-04-24T00:46:34;13.20;71.20
65146;DHT22;51730;56.950;24.126;2023-04-24T00:49:01;13.20;71.50
65146;DHT22;51730;56.950;24.126;2023-04-24T00:51:28;13.20;71.60
65146;DHT22;51730;56.950;24.126;2023-04-24T00:53:58;13.20;71.60
65146;DHT22;51730;56.950;24.126;2023-04-24T00:56:26;13.20;71.70
65146;DHT22;51730;56.950;24.126;2023-04-24T00:58:55;13.20;71.80
65146;DHT22;51730;56.950;24.126;2023-04-24T01:01:22;13.20;71.80
65146;DHT22;51730;56.950;24.126;2023-04-24T01:03:50;13.20;71.90
65146;DHT22;51730;56.950;24.126;2023-04-24T01:06:18;13.10;72.20
65146;DHT22;51730;56.950;24.126;2023-04-24T01:08:45;13.10;72.20
65146;DHT22;51730;56.950;24.126;2023-04-24T01:11:13;13.10;72.50
65146;DHT22;51730;56.950;24.126;2023-04-24T01:13:43;13.00;72.20
65146;DHT22;51730;56.950;24.126;2023-04-24T01:16:15;13.00;72.10
65146;DHT22;51730;56.950;24.126;2023-04-24T01:18:44;13.00;72.20
65146;DHT22;51730;56.950;24.126;2023-04-24T01:21:11;13.00;72.50
65146;DHT22;51730;56.950;24.126;2023-04-24T01:23:39;13.00;72.50
65146;DHT22;51730;56.950;24.126;2023-04-24T01:26:07;13.00;72.50
65146;DHT22;51730;56.950;24.126;2023-04-24T01:28:35;12.90;72.70
65146;DHT22;51730;56.950;24.126;2023-04-24T01:31:02;13.00;73.00
65146;DHT22;51730;56.950;24.126;2023-04-24T01:33:29;12.90;73.10
65146;DHT22;51730;56.950;24.126;2023-04-24T01:35:55;12.90;73.40
65146;DHT22;51730;56.950;24.126;2023-04-24T01:38:23;12.90;73.40
65146;DHT22;51730;56.950;24.126;2023-04-24T01:40:51;12.90;73.60
65146;DHT22;51730;56.950;24.126;2023-04-24T01:43:20;12.80;73.90
65146;DHT22;51730;56.950;24.126;2023-04-24T01:45:49;12.80;74.20
65146;DHT22;51730;56.950;24.126;2023-04-24T01:48:16;12.80;74.10
65146;DHT22;51730;56.950;24.126;2023-04-24T01:50:43;12.80;74.30
65146;DHT22;51730;56.950;24.126;2023-04-24T01:53:10;12.80;74.60
65146;DHT22;51730;56.950;24.126;2023-04-24T01:55:38;12.70;75.00
65146;DHT22;51730;56.950;24.126;2023-04-24T01:58:04;12.70;75.30
65146;DHT22;51730;56.950;24.126;2023-04-24T02:00:34;12.70;75.50
65146;DHT22;51730;56.950;24.126;2023-04-24T02:03:03;12.70;75.50
65146;DHT22;51730;56.950;24.126;2023-04-24T02:05:34;12.80;75.30
65146;DHT22;51730;56.950;24.126;2023-04-24T02:08:01;12.80;74.60
65146;DHT22;51730;56.950;24.126;2023-04-24T02:10:27;12.80;74.50
65146;DHT22;51730;56.950;24.126;2023-04-24T02:12:54;12.70;74.40
65146;DHT22;51730;56.950;24.126;2023-04-24T02:15:21;12.80;74.60
65146;DHT22;51730;56.950;24.126;2023-04-24T02:17:50;12.70;74.90
65146;DHT22;51730;56.950;24.126;2023-04-24T02:20:18;12.70;75.20
65146;DHT22;51730;56.950;24.126;2023-04-24T02:22:45;12.60;75.30
65146;DHT22;51730;56.950;24.126;2023-04-24T02:25:13;12.60;75.10
65146;DHT22;51730;56.950;24.126;2023-04-24T02:27:40;12.60;74.90
65146;DHT22;51730;56.950;24.126;2023-04-24T02:30:07;12.60;75.00
65146;DHT22;51730;56.950;24.126;2023-04-24T02:32:35;12.60;75.20
65146;DHT22;51730;56.950;24.126;2023-04-24T02:35:02;12.60;74.90
65146;DHT22;51730;56.950;24.126;2023-04-24T02:37:29;12.60;75.30
65146;DHT22;51730;56.950;24.126;2023-04-24T02:39:56;12.60;75.40
65146;DHT22;51730;56.950;24.126;2023-04-24T02:42:24;12.60;75.70
65146;DHT22;51730;56.950;24.126;2023-04-24T02:44:52;12.60;75.80
65146;DHT22;51730;56.950;24.126;2023-04-24T02:47:19;12.60;75.90
65146;DHT22;51730;56.950;24.126;2023-04-24T02:49:46;12.50;75.70
65146;DHT22;51730;56.950;24.126;2023-04-24T02:52:13;12.50;75.90
65146;DHT22;51730;56.950;24.126;2023-04-24T02:54:41;12.50;76.10
65146;DHT22;51730;56.950;24.126;2023-04-24T02:57:08;12.50;76.20
65146;DHT22;51730;56.950;24.126;2023-04-24T02:59:35;12.50;76.20
65146;DHT22;51730;56.950;24.126;2023-04-24T03:02:04;12.50;76.10
65146;DHT22;51730;56.950;24.126;2023-04-24T03:04:32;12.50;76.00
65146;DHT22;51730;56.950;24.126;2023-04-24T03:07:00;12.50;76.10
65146;DHT22;51730;56.950;24.126;2023-04-24T03:09:28;12.50;76.10
65146;DHT22;51730;56.950;24.126;2023-04-24T03:11:55;12.50;76.00
65146;DHT22;51730;56.950;24.126;2023-04-24T03:14:23;12.50;76.10
65146;DHT22;51730;56.950;24.126;2023-04-24T03:16:51;12.50;76.00
65146;DHT22;51730;56.950;24.126;2023-04-24T03:19:18;12.50;76.00
65146;DHT22;51730;56.950;24.126;2023-04-24T03:21:45;12.50;75.70
65146;DHT22;51730;56.950;24.126;2023-04-24T03:24:12;12.50;75.50
65146;DHT22;51730;56.950;24.126;2023-04-24T03:26:39;12.50;75.50
65146;DHT22;51730;56.950;24.126;2023-04-24T03:29:06;12.60;75.50
65146;DHT22;51730;56.950;24.126;2023-04-24T03:31:33;12.50;75.50
65146;DHT22;51730;56.950;24.126;2023-04-24T03:34:01;12.50;75.40
65146;DHT22;51730;56.950;24.126;2023-04-24T03:36:28;12.60;75.40
65146;DHT22;51730;56.950;24.126;2023-04-24T03:38:57;12.60;75.00
65146;DHT22;51730;56.950;24.126;2023-04-24T03:41:27;12.70;74.70
65146;DHT22;51730;56.950;24.126;2023-04-24T03:43:54;12.70;74.70
65146;DHT22;51730;56.950;24.126;2023-04-24T03:46:21;12.70;74.30
65146;DHT22;51730;56.950;24.126;2023-04-24T03:48:48;12.80;74.00
65146;DHT22;51730;56.950;24.126;2023-04-24T03:51:15;12.90;73.40
65146;DHT22;51730;56.950;24.126;2023-04-24T03:53:42;12.90;72.80
65146;DHT22;51730;56.950;24.126;2023-04-24T03:56:09;13.00;72.50
65146;DHT22;51730;56.950;24.126;2023-04-24T03:58:36;13.00;72.30
65146;DHT22;51730;56.950;24.126;2023-04-24T04:01:05;13.00;72.20
65146;DHT22;51730;56.950;24.126;2023-04-24T04:03:33;13.00;72.40
65146;DHT22;51730;56.950;24.126;2023-04-24T04:06:00;12.90;72.40
65146;DHT22;51730;56.950;24.126;2023-04-24T04:08:28;13.00;72.30
65146;DHT22;51730;56.950;24.126;2023-04-24T04:10:55;13.00;72.40
65146;DHT22;51730;56.950;24.126;2023-04-24T04:13:21;13.20;71.90
65146;DHT22;51730;56.950;24.126;2023-04-24T04:15:48;13.30;71.20
65146;DHT22;51730;56.950;24.126;2023-04-24T04:18:17;13.30;70.60
65146;DHT22;51730;56.950;24.126;2023-04-24T04:20:45;13.30;70.00
65146;DHT22;51730;56.950;24.126;2023-04-24T04:23:13;13.40;70.00
65146;DHT22;51730;56.950;24.126;2023-04-24T04:25:40;13.40;70.10
65146;DHT22;51730;56.950;24.126;2023-04-24T04:28:08;13.30;69.80
65146;DHT22;51730;56.950;24.126;2023-04-24T04:30:35;13.40;69.90
65146;DHT22;51730;56.950;24.126;2023-04-24T04:33:04;13.30;70.10
65146;DHT22;51730;56.950;24.126;2023-04-24T04:35:31;13.30;70.20
65146;DHT22;51730;56.950;24.126;2023-04-24T04:37:58;13.30;70.50
65146;DHT22;51730;56.950;24.126;2023-04-24T04:40:26;13.30;70.30
65146;DHT22;51730;56.950;24.126;2023-04-24T04:42:55;13.30;70.40
65146;DHT22;51730;56.950;24.126;2023-04-24T04:45:22;13.40;70.30
65146;DHT22;51730;56.950;24.126;2023-04-24T04:47:50;13.50;69.80
65146;DHT22;51730;56.950;24.126;2023-04-24T04:50:20;13.70;69.10
65146;DHT22;51730;56.950;24.126;2023-04-24T04:52:47;13.80;68.30
65146;DHT22;51730;56.950;24.126;2023-04-24T04:55:14;13.80;67.80
65146;DHT22;51730;56.950;24.126;2023-04-24T04:57:41;14.00;67.30
65146;DHT22;51730;56.950;24.126;2023-04-24T05:00:08;14.00;66.90
65146;DHT22;51730;56.950;24.126;2023-04-24T05:02:37;14.10;66.80
65146;DHT22;51730;56.950;24.126;2023-04-24T05:05:05;14.00;66.80
65146;DHT22;51730;56.950;24.126;2023-04-24T05:07:32;14.00;66.80
65146;DHT22;51730;56.950;24.126;2023-04-24T05:09:59;14.00;66.90
65146;DHT22;51730;56.950;24.126;2023-04-24T05:12:26;14.10;66.60
65146;DHT22;51730;56.950;24.126;2023-04-24T05:14:53;14.10;66.40
65146;DHT22;51730;56.950;24.126;2023-04-24T05:17:20;14.30;66.00
65146;DHT22;51730;56.950;24.126;2023-04-24T05:19:48;14.30;65.80
65146;DHT22;51730;56.950;24.126;2023-04-24T05:22:18;14.20;65.90
65146;DHT22;51730;56.950;24.126;2023-04-24T05:24:51;14.20;66.70
65146;DHT22;51730;56.950;24.126;2023-04-24T05:27:18;14.20;66.00
65146;DHT22;51730;56.950;24.126;2023-04-24T05:29:45;14.10;66.50
65146;DHT22;51730;56.950;24.126;2023-04-24T05:32:15;14.20;66.60
65146;DHT22;51730;56.950;24.126;2023-04-24T05:34:42;14.20;66.70
65146;DHT22;51730;56.950;24.126;2023-04-24T05:37:09;14.20;67.30
65146;DHT22;51730;56.950;24.126;2023-04-24T05:39:36;14.20;66.60
65146;DHT22;51730;56.950;24.126;2023-04-24T05:42:04;14.20;66.40
65146;DHT22;51730;56.950;24.126;2023-04-24T05:44:31;14.20;66.60
65146;DHT22;51730;56.950;24.126;2023-04-24T05:46:58;14.30;66.50
65146;DHT22;51730;56.950;24.126;2023-04-24T05:49:27;14.40;66.30
65146;DHT22;51730;56.950;24.126;2023-04-24T05:51:53;14.40;66.20
65146;DHT22;51730;56.950;24.126;2023-04-24T05:54:20;14.50;66.10
65146;DHT22;51730;56.950;24.126;2023-04-24T05:56:49;14.50;65.30
65146;DHT22;51730;56.950;24.126;2023-04-24T05:59:17;14.70;64.90
65146;DHT22;51730;56.950;24.126;2023-04-24T06:01:46;14.90;64.00
65146;DHT22;51730;56.950;24.126;2023-04-24T06:04:16;15.20;63.10
65146;DHT22;51730;56.950;24.126;2023-04-24T06:06:45;15.40;62.40
65146;DHT22;51730;56.950;24.126;2023-04-24T06:09:12;15.50;61.60
65146;DHT22;51730;56.950;24.126;2023-04-24T06:11:39;15.50;61.50
65146;DHT22;51730;56.950;24.126;2023-04-24T06:14:06;15.70;60.90
65146;DHT22;51730;56.950;24.126;2023-04-24T06:16:33;15.80;60.50
65146;DHT22;51730;56.950;24.126;2023-04-24T06:19:00;15.80;60.30
65146;DHT22;51730;56.950;24.126;2023-04-24T06:21:29;15.70;60.40
65146;DHT22;51730;56.950;24.126;2023-04-24T06:23:55;15.70;60.70
65146;DHT22;51730;56.950;24.126;2023-04-24T06:26:23;15.70;61.00
65146;DHT22;51730;56.950;24.126;2023-04-24T06:28:52;15.70;61.20
65146;DHT22;51730;56.950;24.126;2023-04-24T06:31:22;15.70;61.40
65146;DHT22;51730;56.950;24.126;2023-04-24T06:33:49;15.70;61.20
65146;DHT22;51730;56.950;24.126;2023-04-24T06:36:19;15.70;61.50
65146;DHT22;51730;56.950;24.126;2023-04-24T06:38:47;15.70;61.80
65146;DHT22;51730;56.950;24.126;2023-04-24T06:41:14;15.80;62.00
65146;DHT22;51730;56.950;24.126;2023-04-24T06:43:42;15.80;62.40
65146;DHT22;51730;56.950;24.126;2023-04-24T06:46:09;15.80;62.50
65146;DHT22;51730;56.950;24.126;2023-04-24T06:48:36;15.80;62.80
65146;DHT22;51730;56.950;24.126;2023-04-24T06:51:03;15.70;63.00
65146;DHT22;51730;56.950;24.126;2023-04-24T06:53:30;15.70;63.30
65146;DHT22;51730;56.950;24.126;2023-04-24T06:55:59;15.70;63.40
65146;DHT22;51730;56.950;24.126;2023-04-24T06:58:26;15.70;63.70
65146;DHT22;51730;56.950;24.126;2023-04-24T07:00:54;15.80;63.60
65146;DHT22;51730;56.950;24.126;2023-04-24T07:03:22;15.90;63.50
65146;DHT22;51730;56.950;24.126;2023-04-24T07:05:50;16.00;63.30
65146;DHT22;51730;56.950;24.126;2023-04-24T07:08:20;16.00;63.00
65146;DHT22;51730;56.950;24.126;2023-04-24T07:10:49;16.20;62.50
65146;DHT22;51730;56.950;24.126;2023-04-24T07:13:16;16.30;62.10
65146;DHT22;51730;56.950;24.126;2023-04-24T07:15:49;16.30;62.10
65146;DHT22;51730;56.950;24.126;2023-04-24T07:18:28;16.30;62.40
65146;DHT22;51730;56.950;24.126;2023-04-24T07:20:55;16.00;63.20
65146;DHT22;51730;56.950;24.126;2023-04-24T07:23:24;15.90;63.90
65146;DHT22;51730;56.950;24.126;2023-04-24T07:25:52;16.00;63.90
65146;DHT22;51730;56.950;24.126;2023-04-24T07:28:23;16.10;63.70
65146;DHT22;51730;56.950;24.126;2023-04-24T07:30:51;16.20;63.30
65146;DHT22;51730;56.950;24.126;2023-04-24T07:33:21;16.20;63.00
65146;DHT22;51730;56.950;24.126;2023-04-24T07:35:48;16.20;63.10
65146;DHT22;51730;56.950;24.126;2023-04-24T07:38:16;16.20;62.90
65146;DHT22;51730;56.950;24.126;2023-04-24T07:40:48;16.20;63.20
65146;DHT22;51730;56.950;24.126;2023-04-24T07:43:15;16.10;63.30
65146;DHT22;51730;56.950;24.126;2023-04-24T07:45:45;16.00;63.70
65146;DHT22;51730;56.950;24.126;2023-04-24T07:48:14;15.90;64.10
65146;DHT22;51730;56.950;24.126;2023-04-24T07:50:43;15.90;64.40
65146;DHT22;51730;56.950;24.126;2023-04-24T07:53:10;15.90;64.40
65146;DHT22;51730;56.950;24.126;2023-04-24T07:55:37;15.90;64.60
65146;DHT22;51730;56.950;24.126;2023-04-24T07:58:04;15.80;64.80
65146;DHT22;51730;56.950;24.126;2023-04-24T08:00:31;15.70;65.10
65146;DHT22;51730;56.950;24.126;2023-04-24T08:02:58;15.70;65.20
65146;DHT22;51730;56.950;24.126;2023-04-24T08:05:26;15.70;65.20
65146;DHT22;51730;56.950;24.126;2023-04-24T08:07:58;15.70;66.50
65146;DHT22;51730;56.950;24.126;2023-04-24T08:10:28;15.70;67.30
65146;DHT22;51730;56.950;24.126;2023-04-24T08:12:57;15.70;67.80
65146;DHT22;51730;56.950;24.126;2023-04-24T08:15:26;15.80;67.60
65146;DHT22;51730;56.950;24.126;2023-04-24T08:17:56;15.80;67.90
65146;DHT22;51730;56.950;24.126;2023-04-24T08:20:30;15.60;68.50
65146;DHT22;51730;56.950;24.126;2023-04-24T08:23:02;15.60;68.90
65146;DHT22;51730;56.950;24.126;2023-04-24T08:25:30;15.60;68.80
65146;DHT22;51730;56.950;24.126;2023-04-24T08:28:02;15.60;69.80
65146;DHT22;51730;56.950;24.126;2023-04-24T08:30:31;15.60;69.20
65146;DHT22;51730;56.950;24.126;2023-04-24T08:33:02;15.60;69.40
65146;DHT22;51730;56.950;24.126;2023-04-24T08:35:29;15.60;69.70
65146;DHT22;51730;56.950;24.126;2023-04-24T08:38:02;15.60;69.80
65146;DHT22;51730;56.950;24.126;2023-04-24T08:40:34;15.50;69.70
65146;DHT22;51730;56.950;24.126;2023-04-24T08:43:03;15.60;70.10
65146;DHT22;51730;56.950;24.126;2023-04-24T08:45:31;15.60;69.80
65146;DHT22;51730;56.950;24.126;2023-04-24T08:48:04;15.70;69.40
65146;DHT22;51730;56.950;24.126;2023-04-24T08:50:37;15.80;69.20
65146;DHT22;51730;56.950;24.126;2023-04-24T08:53:04;16.00;68.40
65146;DHT22;51730;56.950;24.126;2023-04-24T08:55:31;16.20;67.70
65146;DHT22;51730;56.950;24.126;2023-04-24T08:58:01;16.30;66.60
65146;DHT22;51730;56.950;24.126;2023-04-24T09:00:29;16.40;66.40
65146;DHT22;51730;56.950;24.126;2023-04-24T09:03:00;16.60;65.90
65146;DHT22;51730;56.950;24.126;2023-04-24T09:05:27;16.60;65.40
65146;DHT22;51730;56.950;24.126;2023-04-24T09:07:55;16.70;65.20
65146;DHT22;51730;56.950;24.126;2023-04-24T09:10:24;16.70;64.80
65146;DHT22;51730;56.950;24.126;2023-04-24T09:12:54;16.80;64.70
65146;DHT22;51730;56.950;24.126;2023-04-24T09:15:27;16.80;64.50
65146;DHT22;51730;56.950;24.126;2023-04-24T09:17:55;16.90;64.50
65146;DHT22;51730;56.950;24.126;2023-04-24T09:20:21;16.80;64.10
65146;DHT22;51730;56.950;24.126;2023-04-24T09:22:49;16.90;64.10
65146;DHT22;51730;56.950;24.126;2023-04-24T09:25:20;16.80;64.20
65146;DHT22;51730;56.950;24.126;2023-04-24T09:27:48;17.00;64.00
65146;DHT22;51730;56.950;24.126;2023-04-24T09:30:21;16.90;63.50
65146;DHT22;51730;56.950;24.126;2023-04-24T09:32:49;17.00;63.60
65146;DHT22;51730;56.950;24.126;2023-04-24T09:35:20;17.20;63.00
65146;DHT22;51730;56.950;24.126;2023-04-24T09:37:47;17.30;62.90
65146;DHT22;51730;56.950;24.126;2023-04-24T09:40:18;17.50;62.10
65146;DHT22;51730;56.950;24.126;2023-04-24T09:42:53;17.70;61.40
65146;DHT22;51730;56.950;24.126;2023-04-24T09:45:22;17.60;61.50
65146;DHT22;51730;56.950;24.126;2023-04-24T09:47:52;17.70;61.00
65146;DHT22;51730;56.950;24.126;2023-04-24T09:50:23;17.90;60.20
65146;DHT22;51730;56.950;24.126;2023-04-24T09:52:58;18.70;57.50
65146;DHT22;51730;56.950;24.126;2023-04-24T09:55:25;18.90;56.90
65146;DHT22;51730;56.950;24.126;2023-04-24T09:57:59;18.70;56.80
65146;DHT22;51730;56.950;24.126;2023-04-24T10:00:32;18.90;56.80
65146;DHT22;51730;56.950;24.126;2023-04-24T10:03:00;19.70;54.80
65146;DHT22;51730;56.950;24.126;2023-04-24T10:05:33;20.10;53.00
65146;DHT22;51730;56.950;24.126;2023-04-24T10:10:31;20.30;51.90
65146;DHT22;51730;56.950;24.126;2023-04-24T10:13:12;20.20;51.90
65146;DHT22;51730;56.950;24.126;2023-04-24T10:15:41;20.30;51.70
65146;DHT22;51730;56.950;24.126;2023-04-24T10:18:12;20.60;51.20
65146;DHT22;51730;56.950;24.126;2023-04-24T10:20:42;20.50;51.00
65146;DHT22;51730;56.950;24.126;2023-04-24T10:23:09;20.40;50.70
65146;DHT22;51730;56.950;24.126;2023-04-24T10:25:37;20.40;50.60
65146;DHT22;51730;56.950;24.126;2023-04-24T10:28:06;20.60;50.50
65146;DHT22;51730;56.950;24.126;2023-04-24T10:30:36;20.60;50.30
65146;DHT22;51730;56.950;24.126;2023-04-24T10:33:04;20.80;50.30
65146;DHT22;51730;56.950;24.126;2023-04-24T10:35:39;20.70;49.80
65146;DHT22;51730;56.950;24.126;2023-04-24T10:38:09;20.90;49.30
65146;DHT22;51730;56.950;24.126;2023-04-24T10:40:38;21.20;47.70
65146;DHT22;51730;56.950;24.126;2023-04-24T10:43:08;21.40;47.50
65146;DHT22;51730;56.950;24.126;2023-04-24T10:45:38;21.40;47.10
65146;DHT22;51730;56.950;24.126;2023-04-24T10:48:09;21.40;46.60
65146;DHT22;51730;56.950;24.126;2023-04-24T10:50:47;21.20;47.50
65146;DHT22;51730;56.950;24.126;2023-04-24T10:53:19;21.20;48.30
65146;DHT22;51730;56.950;24.126;2023-04-24T10:55:57;21.30;47.70
65146;DHT22;51730;56.950;24.126;2023-04-24T10:58:35;21.10;48.10
65146;DHT22;51730;56.950;24.126;2023-04-24T11:01:09;21.10;48.40
65146;DHT22;51730;56.950;24.126;2023-04-24T11:03:59;20.80;48.60
65146;DHT22;51730;56.950;24.126;2023-04-24T11:06:38;20.80;49.30
65146;DHT22;51730;56.950;24.126;2023-04-24T11:09:10;20.90;49.40
65146;DHT22;51730;56.950;24.126;2023-04-24T11:11:45;20.60;50.00
65146;DHT22;51730;56.950;24.126;2023-04-24T11:14:16;20.60;50.00
65146;DHT22;51730;56.950;24.126;2023-04-24T11:16:52;20.40;50.30
65146;DHT22;51730;56.950;24.126;2023-04-24T11:19:24;20.30;50.70
65146;DHT22;51730;56.950;24.126;2023-04-24T11:22:13;20.00;51.40
65146;DHT22;51730;56.950;24.126;2023-04-24T11:24:50;19.60;52.20
65146;DHT22;51730;56.950;24.126;2023-04-24T11:27:20;19.40;53.20
65146;DHT22;51730;56.950;24.126;2023-04-24T11:34:51;19.20;54.60
65146;DHT22;51730;56.950;24.126;2023-04-24T11:40:36;19.10;54.90
65146;DHT22;51730;56.950;24.126;2023-04-24T11:43:08;19.50;54.20
65146;DHT22;51730;56.950;24.126;2023-04-24T11:45:36;19.70;53.50
65146;DHT22;51730;56.950;24.126;2023-04-24T11:48:03;19.70;53.70
65146;DHT22;51730;56.950;24.126;2023-04-24T11:50:35;19.60;53.90
65146;DHT22;51730;56.950;24.126;2023-04-24T11:53:02;19.50;54.40
65146;DHT22;51730;56.950;24.126;2023-04-24T11:55:34;19.20;54.50
65146;DHT22;51730;56.950;24.126;2023-04-24T11:58:01;19.00;55.60
65146;DHT22;51730;56.950;24.126;2023-04-24T12:00:29;19.10;56.10
65146;DHT22;51730;56.950;24.126;2023-04-24T12:03:09;19.10;56.50
65146;DHT22;51730;56.950;24.126;2023-04-24T12:05:39;19.10;56.50
65146;DHT22;51730;56.950;24.126;2023-04-24T12:08:07;19.00;56.50
65146;DHT22;51730;56.950;24.126;2023-04-24T12:10:37;19.30;56.20
65146;DHT22;51730;56.950;24.126;2023-04-24T12:13:04;19.20;56.60
65146;DHT22;51730;56.950;24.126;2023-04-24T12:15:32;19.40;56.00
65146;DHT22;51730;56.950;24.126;2023-04-24T12:17:59;19.90;53.90
65146;DHT22;51730;56.950;24.126;2023-04-24T12:20:31;20.00;53.10
65146;DHT22;51730;56.950;24.126;2023-04-24T12:22:59;19.80;54.20
65146;DHT22;51730;56.950;24.126;2023-04-24T12:25:30;19.80;54.40
65146;DHT22;51730;56.950;24.126;2023-04-24T12:30:31;19.90;54.70
65146;DHT22;51730;56.950;24.126;2023-04-24T12:32:59;19.90;54.20
65146;DHT22;51730;56.950;24.126;2023-04-24T12:35:27;19.90;53.80
65146;DHT22;51730;56.950;24.126;2023-04-24T12:37:55;20.10;53.60
65146;DHT22;51730;56.950;24.126;2023-04-24T12:40:24;20.20;52.40
65146;DHT22;51730;56.950;24.126;2023-04-24T12:42:55;20.30;52.30
65146;DHT22;51730;56.950;24.126;2023-04-24T12:45:23;20.40;52.40
65146;DHT22;51730;56.950;24.126;2023-04-24T12:47:51;20.70;50.60
65146;DHT22;51730;56.950;24.126;2023-04-24T12:50:24;20.90;50.00
65146;DHT22;51730;56.950;24.126;2023-04-24T12:52:50;20.70;51.70
65146;DHT22;51730;56.950;24.126;2023-04-24T12:55:18;20.90;51.80
65146;DHT22;51730;56.950;24.126;2023-04-24T12:57:45;20.70;51.80
65146;DHT22;51730;56.950;24.126;2023-04-24T13:00:13;20.90;51.50
65146;DHT22;51730;56.950;24.126;2023-04-24T13:02:44;20.80;51.50
65146;DHT22;51730;56.950;24.126;2023-04-24T13:05:15;20.50;52.30
65146;DHT22;51730;56.950;24.126;2023-04-24T13:07:44;20.20;53.60
65146;DHT22;51730;56.950;24.126;2023-04-24T13:10:19;20.50;53.30
65146;DHT22;51730;56.950;24.126;2023-04-24T13:12:46;20.50;53.30
65146;DHT22;51730;56.950;24.126;2023-04-24T13:15:13;20.70;52.90
65146;DHT22;51730;56.950;24.126;2023-04-24T13:17:41;20.60;53.40
65146;DHT22;51730;56.950;24.126;2023-04-24T13:20:08;20.00;54.10
65146;DHT22;51730;56.950;24.126;2023-04-24T13:22:35;20.00;54.80
65146;DHT22;51730;56.950;24.126;2023-04-24T13:25:02;20.50;54.70
65146;DHT22;51730;56.950;24.126;2023-04-24T13:27:31;20.40;54.80
65146;DHT22;51730;56.950;24.126;2023-04-24T13:29:58;20.60;54.80
65146;DHT22;51730;56.950;24.126;2023-04-24T13:32:26;20.00;56.30
65146;DHT22;51730;56.950;24.126;2023-04-24T13:34:56;19.90;58.40
65146;DHT22;51730;56.950;24.126;2023-04-24T13:37:30;20.10;58.30
65146;DHT22;51730;56.950;24.126;2023-04-24T13:40:02;20.10;59.70
65146;DHT22;51730;56.950;24.126;2023-04-24T13:42:32;19.90;60.50
65146;DHT22;51730;56.950;24.126;2023-04-24T13:44:59;19.90;60.90
65146;DHT22;51730;56.950;24.126;2023-04-24T13:47:36;19.90;60.90
65146;DHT22;51730;56.950;24.126;2023-04-24T13:50:06;19.90;59.90
65146;DHT22;51730;56.950;24.126;2023-04-24T13:52:34;19.90;59.50
65146;DHT22;51730;56.950;24.126;2023-04-24T13:55:04;20.00;58.80
65146;DHT22;51730;56.950;24.126;2023-04-24T13:57:35;20.00;57.20
65146;DHT22;51730;56.950;24.126;2023-04-24T14:00:02;20.00;57.80
65146;DHT22;51730;56.950;24.126;2023-04-24T14:02:34;19.90;58.30
65146;DHT22;51730;56.950;24.126;2023-04-24T14:05:01;20.20;57.90
65146;DHT22;51730;56.950;24.126;2023-04-24T14:07:29;20.20;57.50
65146;DHT22;51730;56.950;24.126;2023-04-24T14:10:00;20.30;57.40
65146;DHT22;51730;56.950;24.126;2023-04-24T14:12:27;20.30;56.00
65146;DHT22;51730;56.950;24.126;2023-04-24T14:14:54;20.30;55.70
65146;DHT22;51730;56.950;24.126;2023-04-24T14:17:23;20.20;55.90
65146;DHT22;51730;56.950;24.126;2023-04-24T14:19:51;20.10;56.30
65146;DHT22;51730;56.950;24.126;2023-04-24T14:22:21;20.10;56.30
65146;DHT22;51730;56.950;24.126;2023-04-24T14:24:51;20.20;56.30
65146;DHT22;51730;56.950;24.126;2023-04-24T14:27:19;20.30;55.70
65146;DHT22;51730;56.950;24.126;2023-04-24T14:29:48;20.40;55.00
65146;DHT22;51730;56.950;24.126;2023-04-24T14:32:16;20.40;55.00
65146;DHT22;51730;56.950;24.126;2023-04-24T14:34:48;20.40;55.10
65146;DHT22;51730;56.950;24.126;2023-04-24T14:37:17;20.40;54.50
65146;DHT22;51730;56.950;24.126;2023-04-24T14:39:52;20.30;55.10
65146;DHT22;51730;56.950;24.126;2023-04-24T14:42:40;20.40;55.10
65146;DHT22;51730;56.950;24.126;2023-04-24T14:45:08;20.40;54.00
65146;DHT22;51730;56.950;24.126;2023-04-24T14:47:36;20.50;52.40
65146;DHT22;51730;56.950;24.126;2023-04-24T14:50:04;20.50;52.80
65146;DHT22;51730;56.950;24.126;2023-04-24T14:52:31;20.70;52.90
65146;DHT22;51730;56.950;24.126;2023-04-24T14:54:58;20.80;52.40
65146;DHT22;51730;56.950;24.126;2023-04-24T14:57:25;20.90;52.30
65146;DHT22;51730;56.950;24.126;2023-04-24T14:59:51;20.80;52.40
65146;DHT22;51730;56.950;24.126;2023-04-24T15:02:19;21.00;51.80
65146;DHT22;51730;56.950;24.126;2023-04-24T15:04:48;21.00;51.70
65146;DHT22;51730;56.950;24.126;2023-04-24T15:07:15;21.20;51.40
65146;DHT22;51730;56.950;24.126;2023-04-24T15:09:44;21.30;50.30
65146;DHT22;51730;56.950;24.126;2023-04-24T15:12:14;21.30;50.60
65146;DHT22;51730;56.950;24.126;2023-04-24T15:14:42;21.30;50.80
65146;DHT22;51730;56.950;24.126;2023-04-24T15:17:09;21.30;50.80
65146;DHT22;51730;56.950;24.126;2023-04-24T15:19:46;21.30;51.00
65146;DHT22;51730;56.950;24.126;2023-04-24T15:22:14;21.30;51.00
65146;DHT22;51730;56.950;24.126;2023-04-24T15:24:44;21.10;51.10
65146;DHT22;51730;56.950;24.126;2023-04-24T15:27:12;21.10;51.90
65146;DHT22;51730;56.950;24.126;2023-04-24T15:29:42;20.70;52.70
65146;DHT22;51730;56.950;24.126;2023-04-24T15:32:17;20.70;51.50
65146;DHT22;51730;56.950;24.126;2023-04-24T15:34:44;20.50;50.40
65146;DHT22;51730;56.950;24.126;2023-04-24T15:37:33;20.60;50.20
65146;DHT22;51730;56.950;24.126;2023-04-24T15:40:00;20.90;47.80